createdAt,value
2018-05-06T00:00:16.609Z,52.75
2018-05-06T00:02:44.885Z,52.84
2018-05-06T00:05:13.149Z,52.91
2018-05-06T00:07:41.452Z,53.40
2018-05-06T00:10:10.499Z,53.62
2018-05-06T00:12:38.784Z,52.91
2018-05-06T00:15:07.112Z,52.80
2018-05-06T00:17:35.355Z,52.97
2018-05-06T00:20:03.647Z,54.74
2018-05-06T00:22:32.706Z,53.65
2018-05-06T00:25:00.970Z,54.57
2018-05-06T00:27:29.272Z,54.71
2018-05-06T00:29:57.546Z,56.29
2018-05-06T00:32:25.882Z,55.92
2018-05-06T00:34:54.153Z,55.91
2018-05-06T00:37:22.732Z,54.66
2018-05-06T00:39:51.038Z,55.27
2018-05-06T00:42:19.350Z,55.48
2018-05-06T00:44:47.639Z,55.72
2018-05-06T00:47:16.686Z,55.21
2018-05-06T00:49:44.937Z,55.60
2018-05-06T00:52:13.211Z,55.71
2018-05-06T00:54:44.344Z,55.94
2018-05-06T00:57:12.612Z,56.47
2018-05-06T00:59:40.920Z,54.74
2018-05-06T01:02:09.171Z,54.19
2018-05-06T01:04:37.440Z,54.75
2018-05-06T01:07:05.697Z,55.54
2018-05-06T01:09:34.745Z,55.08
2018-05-06T01:12:03.022Z,54.78
2018-05-06T01:14:31.397Z,54.45
2018-05-06T01:16:59.669Z,54.15
2018-05-06T01:19:27.960Z,54.48
2018-05-06T01:21:56.215Z,53.92
2018-05-06T01:24:24.551Z,54.77
2018-05-06T01:26:53.572Z,55.01
2018-05-06T01:29:21.848Z,55.37
2018-05-06T01:31:50.137Z,54.80
2018-05-06T01:34:19.139Z,54.46
2018-05-06T01:36:50.272Z,54.62
2018-05-06T01:39:18.554Z,55.52
2018-05-06T01:41:46.831Z,54.81
2018-05-06T01:44:15.097Z,55.10
2018-05-06T01:46:43.357Z,55.26
2018-05-06T01:49:11.621Z,55.24
2018-05-06T01:51:39.873Z,55.89
2018-05-06T01:54:08.933Z,55.96
2018-05-06T01:56:37.959Z,56.37
2018-05-06T01:59:06.994Z,56.08
2018-05-06T02:01:35.341Z,56.85
2018-05-06T02:04:04.365Z,56.13
2018-05-06T02:06:32.619Z,56.45
2018-05-06T02:09:00.887Z,57.49
2018-05-06T02:11:29.382Z,56.66
2018-05-06T02:13:57.642Z,55.79
2018-05-06T02:16:25.913Z,54.95
2018-05-06T02:18:54.970Z,55.14
2018-05-06T02:21:23.240Z,55.82
2018-05-06T02:23:51.512Z,55.46
2018-05-06T02:26:19.794Z,55.00
2018-05-06T02:28:48.058Z,54.58
2018-05-06T02:31:16.333Z,55.10
2018-05-06T02:33:44.647Z,56.60
2018-05-06T02:36:13.694Z,54.82
2018-05-06T02:38:41.962Z,54.38
2018-05-06T02:41:10.230Z,55.51
2018-05-06T02:43:38.507Z,54.96
2018-05-06T02:46:06.792Z,55.49
2018-05-06T02:48:35.072Z,55.76
2018-05-06T02:51:03.343Z,55.70
2018-05-06T02:53:31.738Z,56.27
2018-05-06T02:56:00.092Z,56.97
2018-05-06T02:58:28.367Z,56.24
2018-05-06T03:00:56.655Z,55.43
2018-05-06T03:03:24.919Z,54.69
2018-05-06T03:05:53.251Z,55.00
2018-05-06T03:08:22.421Z,55.82
2018-05-06T03:10:50.739Z,56.59
2018-05-06T03:13:19.018Z,56.07
2018-05-06T03:15:47.298Z,57.27
2018-05-06T03:18:15.672Z,56.77
2018-05-06T03:20:43.942Z,57.63
2018-05-06T03:23:12.981Z,57.04
2018-05-06T03:25:42.030Z,56.49
2018-05-06T03:28:10.321Z,56.61
2018-05-06T03:30:38.581Z,56.90
2018-05-06T03:33:06.877Z,57.17
2018-05-06T03:35:35.141Z,57.07
2018-05-06T03:38:03.493Z,55.98
2018-05-06T03:40:32.505Z,56.13
2018-05-06T03:43:00.762Z,55.74
2018-05-06T03:45:29.808Z,55.92
2018-05-06T03:47:58.837Z,55.94
2018-05-06T03:50:27.876Z,57.14
2018-05-06T03:52:56.126Z,56.93
2018-05-06T03:55:24.398Z,57.30
2018-05-06T03:58:10.393Z,57.08
2018-05-06T04:00:47.090Z,56.87
2018-05-06T04:03:15.334Z,57.02
2018-05-06T04:05:43.713Z,58.18
2018-05-06T04:08:11.912Z,57.08
2018-05-06T04:10:40.675Z,56.44
2018-05-06T04:13:08.949Z,56.98
2018-05-06T04:15:37.231Z,58.35
2018-05-06T04:18:05.489Z,57.52
2018-05-06T04:20:34.717Z,58.30
2018-05-06T04:23:02.984Z,56.89
2018-05-06T04:25:31.249Z,57.94
2018-05-06T04:27:59.521Z,57.99
2018-05-06T04:30:27.776Z,57.90
2018-05-06T04:32:56.824Z,58.00
2018-05-06T04:35:25.092Z,57.74
2018-05-06T04:37:53.364Z,56.09
2018-05-06T04:40:21.638Z,56.70
2018-05-06T04:42:49.913Z,56.05
2018-05-06T04:45:18.190Z,56.73
2018-05-06T04:47:46.451Z,56.59
2018-05-06T04:50:14.719Z,57.72
2018-05-06T04:52:43.017Z,57.03
2018-05-06T04:55:11.333Z,56.42
2018-05-06T04:57:39.595Z,56.96
2018-05-06T05:00:07.859Z,56.61
2018-05-06T05:02:36.135Z,56.76
2018-05-06T05:05:04.389Z,58.00
2018-05-06T05:07:32.722Z,56.54
2018-05-06T05:10:01.776Z,59.17
2018-05-06T05:12:30.038Z,56.10
2018-05-06T05:14:58.641Z,57.38
2018-05-06T05:17:26.920Z,57.27
2018-05-06T05:19:55.184Z,59.68
2018-05-06T05:22:23.449Z,57.40
2018-05-06T05:24:52.492Z,58.25
2018-05-06T05:27:21.530Z,57.20
2018-05-06T05:29:49.877Z,57.73
2018-05-06T05:32:18.907Z,57.87
2018-05-06T05:34:47.387Z,57.21
2018-05-06T05:37:15.669Z,58.20
2018-05-06T05:39:43.958Z,57.16
2018-05-06T05:42:12.284Z,58.72
2018-05-06T05:44:40.534Z,56.53
2018-05-06T05:47:09.590Z,50.48
2018-05-06T05:49:37.917Z,45.44
2018-05-06T05:52:06.945Z,44.02
2018-05-06T05:54:35.216Z,40.31
2018-05-06T05:57:03.492Z,39.10
2018-05-06T05:59:31.762Z,34.66
2018-05-06T06:02:00.046Z,33.94
2018-05-06T06:04:28.302Z,36.82
2018-05-06T06:06:56.597Z,36.10
2018-05-06T06:09:24.856Z,34.79
2018-05-06T06:11:53.129Z,36.08
2018-05-06T06:14:21.485Z,34.48
2018-05-06T06:16:50.616Z,33.03
2018-05-06T06:19:18.880Z,29.46
2018-05-06T06:21:47.165Z,32.36
2018-05-06T06:24:15.454Z,30.17
2018-05-06T06:26:43.744Z,30.92
2018-05-06T06:29:11.999Z,31.47
2018-05-06T06:31:40.282Z,31.07
2018-05-06T06:34:08.608Z,31.67
2018-05-06T06:36:37.624Z,30.42
2018-05-06T06:39:06.746Z,29.64
2018-05-06T06:41:35.056Z,32.35
2018-05-06T06:44:03.337Z,31.09
2018-05-06T06:46:32.375Z,29.32
2018-05-06T06:49:00.740Z,29.89
2018-05-06T06:51:29.771Z,28.74
2018-05-06T06:53:58.860Z,32.28
2018-05-06T06:56:27.141Z,30.32
2018-05-06T06:58:55.723Z,32.06
2018-05-06T07:01:24.031Z,32.12
2018-05-06T07:03:53.334Z,33.79
2018-05-06T07:06:22.398Z,32.58
2018-05-06T07:08:50.646Z,35.66
2018-05-06T07:11:18.968Z,36.10
2018-05-06T07:13:47.297Z,37.20
2018-05-06T07:16:15.600Z,38.44
2018-05-06T07:18:43.869Z,39.54
2018-05-06T07:21:12.178Z,40.79
2018-05-06T07:23:40.500Z,42.71
2018-05-06T07:26:08.768Z,38.88
2018-05-06T07:28:37.038Z,38.83
2018-05-06T07:31:05.292Z,40.46
2018-05-06T07:33:33.583Z,40.35
2018-05-06T07:36:01.870Z,40.10
2018-05-06T07:38:30.306Z,40.54
2018-05-06T07:40:59.339Z,39.99
2018-05-06T07:43:27.618Z,40.26
2018-05-06T07:45:55.886Z,40.98
2018-05-06T07:48:24.213Z,40.23
2018-05-06T07:50:52.520Z,40.13
2018-05-06T07:53:20.781Z,39.03
2018-05-06T07:55:49.082Z,38.75
2018-05-06T07:58:17.359Z,37.59
2018-05-06T08:00:45.807Z,39.37
2018-05-06T08:03:14.905Z,37.98
2018-05-06T08:05:44.063Z,40.26
2018-05-06T08:08:12.556Z,37.78
2018-05-06T08:10:40.955Z,38.44
2018-05-06T08:13:09.262Z,38.33
2018-05-06T08:15:37.615Z,41.08
2018-05-06T08:18:06.728Z,38.51
2018-05-06T08:20:35.134Z,38.28
2018-05-06T08:23:03.591Z,38.48
2018-05-06T08:25:31.993Z,39.11
2018-05-06T08:28:00.381Z,38.83
2018-05-06T08:30:28.698Z,37.15
2018-05-06T08:32:57.093Z,38.68
2018-05-06T08:35:25.797Z,37.37
2018-05-06T08:37:54.151Z,37.91
2018-05-06T08:40:22.475Z,37.53
2018-05-06T08:42:50.804Z,37.92
2018-05-06T08:45:19.140Z,38.20
2018-05-06T08:47:47.498Z,39.49
2018-05-06T08:50:15.925Z,37.72
2018-05-06T08:52:45.071Z,37.43
2018-05-06T08:55:15.028Z,38.05
2018-05-06T08:57:44.247Z,38.39
2018-05-06T09:00:12.610Z,36.71
2018-05-06T09:02:41.722Z,37.34
2018-05-06T09:05:10.195Z,39.25
2018-05-06T09:07:38.786Z,38.70
2018-05-06T09:10:07.305Z,39.05
2018-05-06T09:12:35.695Z,38.37
2018-05-06T09:15:04.085Z,37.47
2018-05-06T09:17:33.431Z,37.12
2018-05-06T09:20:02.032Z,36.92
2018-05-06T09:22:30.537Z,37.28
2018-05-06T09:24:58.932Z,36.68
2018-05-06T09:27:33.297Z,36.78
2018-05-06T09:30:01.698Z,37.97
2018-05-06T09:32:30.204Z,36.50
2018-05-06T09:34:58.696Z,34.05
2018-05-06T09:37:27.158Z,35.82
2018-05-06T09:39:55.549Z,35.66
2018-05-06T09:42:24.993Z,36.28
2018-05-06T09:44:53.400Z,35.18
2018-05-06T09:47:21.897Z,34.13
2018-05-06T09:49:50.335Z,34.22
2018-05-06T09:52:18.681Z,34.81
2018-05-06T09:54:47.026Z,34.40
2018-05-06T09:57:16.117Z,34.12
2018-05-06T09:59:44.630Z,34.10
2018-05-06T10:02:13.178Z,33.67
2018-05-06T10:04:41.681Z,34.47
2018-05-06T10:07:10.215Z,33.96
2018-05-06T10:09:38.748Z,34.02
2018-05-06T10:12:08.257Z,34.07
2018-05-06T10:14:37.432Z,33.92
2018-05-06T10:17:05.941Z,33.95
2018-05-06T10:19:35.100Z,35.28
2018-05-06T10:22:03.892Z,33.59
2018-05-06T10:24:32.482Z,33.43
2018-05-06T10:27:00.921Z,34.21
2018-05-06T10:29:29.234Z,33.85
2018-05-06T10:31:58.275Z,32.94
2018-05-06T10:34:26.551Z,32.61
2018-05-06T10:36:54.803Z,32.90
2018-05-06T10:39:23.244Z,32.68
2018-05-06T10:41:51.532Z,34.25
2018-05-06T10:44:19.826Z,32.49
2018-05-06T10:46:48.084Z,31.82
2018-05-06T10:49:16.415Z,31.75
2018-05-06T10:51:45.429Z,32.02
2018-05-06T10:54:14.054Z,31.69
2018-05-06T10:56:42.356Z,31.22
2018-05-06T10:59:10.633Z,31.44
2018-05-06T11:01:38.930Z,30.73
2018-05-06T11:04:07.280Z,30.35
2018-05-06T11:06:35.529Z,29.42
2018-05-06T11:09:03.838Z,31.01
2018-05-06T11:11:32.123Z,30.37
2018-05-06T11:14:00.386Z,29.75
2018-05-06T11:16:28.657Z,29.11
2018-05-06T11:18:57.040Z,28.37
2018-05-06T11:21:25.337Z,28.65
2018-05-06T11:23:53.651Z,28.59
2018-05-06T11:26:22.854Z,28.83
2018-05-06T11:28:50.961Z,28.67
2018-05-06T11:31:19.542Z,29.30
2018-05-06T11:33:47.866Z,29.39
2018-05-06T11:36:16.198Z,29.57
2018-05-06T11:38:44.565Z,28.72
2018-05-06T11:41:12.881Z,28.42
2018-05-06T11:43:41.149Z,28.81
2018-05-06T11:46:09.413Z,27.68
2018-05-06T11:48:37.679Z,27.75
2018-05-06T11:51:05.977Z,27.92
2018-05-06T11:53:34.250Z,27.58
2018-05-06T11:56:02.533Z,28.15
2018-05-06T11:58:30.874Z,28.18
2018-05-06T12:00:59.202Z,28.64
2018-05-06T12:03:28.279Z,27.30
2018-05-06T12:05:56.532Z,26.81
2018-05-06T12:08:24.817Z,27.36
2018-05-06T12:10:53.070Z,28.20
2018-05-06T12:13:21.662Z,26.41
2018-05-06T12:15:49.926Z,27.41
2018-05-06T12:18:18.207Z,28.38
2018-05-06T12:20:46.489Z,26.78
2018-05-06T12:23:14.786Z,28.19
2018-05-06T12:25:43.105Z,26.89
2018-05-06T12:28:11.410Z,27.67
2018-05-06T12:30:39.747Z,26.33
2018-05-06T12:33:08.888Z,27.10
2018-05-06T12:35:37.175Z,27.27
2018-05-06T12:38:05.449Z,27.74
2018-05-06T12:40:33.731Z,29.58
2018-05-06T12:43:02.026Z,27.76
2018-05-06T12:45:30.306Z,27.13
2018-05-06T12:47:58.548Z,27.33
2018-05-06T12:50:26.882Z,26.76
2018-05-06T12:52:55.157Z,27.25
2018-05-06T12:55:24.512Z,27.47
2018-05-06T12:57:53.503Z,26.82
2018-05-06T13:00:21.775Z,27.49
2018-05-06T13:02:50.033Z,26.71
2018-05-06T13:05:18.333Z,27.13
2018-05-06T13:07:46.606Z,26.80
2018-05-06T13:10:14.870Z,26.17
2018-05-06T13:12:43.149Z,26.21
2018-05-06T13:15:11.429Z,26.00
2018-05-06T13:17:39.734Z,25.82
2018-05-06T13:20:08.781Z,26.23
2018-05-06T13:22:37.065Z,25.78
2018-05-06T13:25:05.333Z,26.14
2018-05-06T13:27:33.629Z,24.98
2018-05-06T13:30:01.960Z,24.69
2018-05-06T13:32:30.215Z,24.82
2018-05-06T13:34:58.522Z,25.81
2018-05-06T13:37:26.877Z,26.13
2018-05-06T13:39:55.178Z,26.26
2018-05-06T13:42:23.512Z,26.08
2018-05-06T13:44:51.952Z,26.45
2018-05-06T13:47:20.237Z,26.22
2018-05-06T13:49:48.577Z,25.40
2018-05-06T13:52:17.057Z,24.85
2018-05-06T13:54:45.353Z,24.49
2018-05-06T13:57:13.629Z,24.95
2018-05-06T13:59:41.915Z,24.38
2018-05-06T14:02:10.192Z,23.98
2018-05-06T14:04:38.489Z,24.35
2018-05-06T14:07:06.745Z,24.47
2018-05-06T14:09:35.029Z,23.66
2018-05-06T14:12:03.314Z,23.31
2018-05-06T14:14:32.695Z,23.08
2018-05-06T14:17:01.035Z,24.63
2018-05-06T14:19:29.312Z,24.55
2018-05-06T14:21:57.582Z,24.08
2018-05-06T14:24:25.868Z,24.47
2018-05-06T14:26:54.231Z,24.14
2018-05-06T14:29:22.560Z,24.49
2018-05-06T14:31:50.814Z,24.57
2018-05-06T14:34:19.125Z,25.10
2018-05-06T14:36:48.170Z,25.05
2018-05-06T14:39:16.446Z,24.93
2018-05-06T14:41:45.504Z,24.93
2018-05-06T14:44:13.817Z,24.71
2018-05-06T14:47:00.041Z,25.72
2018-05-06T14:49:28.398Z,25.12
2018-05-06T14:51:56.721Z,25.23
2018-05-06T14:54:25.743Z,25.87
2018-05-06T14:56:54.014Z,24.91
2018-05-06T14:59:22.266Z,24.96
2018-05-06T15:01:50.572Z,25.20
2018-05-06T15:04:18.858Z,25.09
2018-05-06T15:06:47.151Z,24.19
2018-05-06T15:09:15.413Z,25.05
2018-05-06T15:11:43.708Z,25.48
2018-05-06T15:14:12.037Z,24.71
2018-05-06T15:16:40.340Z,24.58
2018-05-06T15:19:08.627Z,24.04
2018-05-06T15:21:36.957Z,24.70
2018-05-06T15:24:05.248Z,25.71
2018-05-06T15:26:33.529Z,25.31
2018-05-06T15:29:01.839Z,25.12
2018-05-06T15:31:30.098Z,25.44
2018-05-06T15:33:58.467Z,25.26
2018-05-06T15:36:26.739Z,25.78
2018-05-06T15:38:55.027Z,25.94
2018-05-06T15:41:23.339Z,26.33
2018-05-06T15:43:51.579Z,26.10
2018-05-06T15:46:19.869Z,25.21
2018-05-06T15:48:48.214Z,24.77
2018-05-06T15:51:16.486Z,25.14
2018-05-06T15:53:44.803Z,25.24
2018-05-06T15:56:13.064Z,24.83
2018-05-06T15:58:41.639Z,26.26
2018-05-06T16:01:09.899Z,26.38
2018-05-06T16:03:56.016Z,25.95
2018-05-06T16:06:24.312Z,26.17
2018-05-06T16:08:52.631Z,25.38
2018-05-06T16:11:20.935Z,25.66
2018-05-06T16:13:49.225Z,25.35
2018-05-06T16:16:17.504Z,26.22
2018-05-06T16:21:20.456Z,26.27
2018-05-06T16:23:48.789Z,26.39
2018-05-06T16:26:17.833Z,25.69
2018-05-06T16:28:46.171Z,26.30
2018-05-06T16:31:15.225Z,27.35
2018-05-06T16:33:43.940Z,26.39
2018-05-06T16:36:13.190Z,27.30
2018-05-06T16:38:41.499Z,26.21
2018-05-06T16:41:09.949Z,26.77
2018-05-06T16:43:38.213Z,26.79
2018-05-06T16:46:06.503Z,26.74
2018-05-06T16:48:34.812Z,26.83
2018-05-06T16:51:03.144Z,27.02
2018-05-06T16:53:31.442Z,27.38
2018-05-06T16:55:59.830Z,27.83
2018-05-06T16:58:28.135Z,27.54
2018-05-06T17:00:57.418Z,26.91
2018-05-06T17:03:25.805Z,27.61
2018-05-06T17:05:54.102Z,27.53
2018-05-06T17:08:22.382Z,27.38
2018-05-06T17:10:50.693Z,28.54
2018-05-06T17:13:18.961Z,28.17
2018-05-06T17:15:48.050Z,26.92
2018-05-06T17:18:16.515Z,27.55
2018-05-06T17:20:44.859Z,28.38
2018-05-06T17:23:13.471Z,29.83
2018-05-06T17:25:41.821Z,28.33
2018-05-06T17:28:10.982Z,27.95
2018-05-06T17:30:39.279Z,27.89
2018-05-06T17:33:07.589Z,28.28
2018-05-06T17:35:35.873Z,27.98
2018-05-06T17:38:04.334Z,28.12
2018-05-06T17:40:32.619Z,28.18
2018-05-06T17:43:01.849Z,29.08
2018-05-06T17:45:30.187Z,29.21
2018-05-06T17:47:59.214Z,29.62
2018-05-06T17:50:27.479Z,29.52
2018-05-06T17:52:55.845Z,29.91
2018-05-06T17:55:24.117Z,30.31
2018-05-06T17:57:54.418Z,29.25
2018-05-06T18:00:23.725Z,30.22
2018-05-06T18:02:53.088Z,30.58
2018-05-06T18:05:21.427Z,31.64
2018-05-06T18:07:49.740Z,31.63
2018-05-06T18:10:18.089Z,32.51
2018-05-06T18:12:46.401Z,29.75
2018-05-06T18:15:14.686Z,31.05
2018-05-06T18:17:43.733Z,32.72
2018-05-06T18:20:12.128Z,32.90
2018-05-06T18:22:40.670Z,32.88
2018-05-06T18:25:09.053Z,31.89
2018-05-06T18:27:37.314Z,32.06
2018-05-06T18:30:05.629Z,32.12
2018-05-06T18:32:34.050Z,31.15
2018-05-06T18:35:03.181Z,30.92
2018-05-06T18:37:31.500Z,31.81
2018-05-06T18:39:59.907Z,30.94
2018-05-06T18:42:29.166Z,32.35
2018-05-06T18:44:57.557Z,33.69
2018-05-06T18:47:25.907Z,35.33
2018-05-06T18:49:54.341Z,35.54
2018-05-06T18:52:22.851Z,37.28
2018-05-06T18:54:51.304Z,36.50
2018-05-06T18:57:20.537Z,37.18
2018-05-06T18:59:49.747Z,38.30
2018-05-06T19:02:18.246Z,37.35
2018-05-06T19:04:46.774Z,37.21
2018-05-06T19:07:15.169Z,37.44
2018-05-06T19:09:43.693Z,38.06
2018-05-06T19:12:12.055Z,38.36
2018-05-06T19:14:40.408Z,36.95
2018-05-06T19:17:08.805Z,36.26
2018-05-06T19:19:37.169Z,37.87
2018-05-06T19:22:05.566Z,37.41
2018-05-06T19:24:33.997Z,38.51
2018-05-06T19:27:02.443Z,39.24
2018-05-06T19:29:30.814Z,40.42
2018-05-06T19:31:59.231Z,40.32
2018-05-06T19:34:27.649Z,39.64
2018-05-06T19:36:56.045Z,41.21
2018-05-06T19:39:24.521Z,40.88
2018-05-06T19:41:52.833Z,40.42
2018-05-06T19:44:21.281Z,39.10
2018-05-06T19:46:49.672Z,40.19
2018-05-06T19:49:18.081Z,39.82
2018-05-06T19:51:46.480Z,41.36
2018-05-06T19:54:14.892Z,41.47
2018-05-06T19:56:43.557Z,40.71
2018-05-06T19:59:12.258Z,40.67
2018-05-06T20:01:40.583Z,41.66
2018-05-06T20:04:09.091Z,39.93
2018-05-06T20:06:37.497Z,40.21
2018-05-06T20:09:06.683Z,39.96
2018-05-06T20:11:35.188Z,40.53
2018-05-06T20:14:03.633Z,40.50
2018-05-06T20:16:32.032Z,40.92
2018-05-06T20:19:00.515Z,39.85
2018-05-06T20:21:29.022Z,40.29
2018-05-06T20:23:57.333Z,39.84
2018-05-06T20:26:25.744Z,39.73
2018-05-06T20:28:54.036Z,39.87
2018-05-06T20:31:23.148Z,39.84
2018-05-06T20:33:52.189Z,39.86
2018-05-06T20:36:20.521Z,40.36
2018-05-06T20:38:49.546Z,40.69
2018-05-06T20:41:17.841Z,40.04
2018-05-06T20:43:46.162Z,40.13
2018-05-06T20:46:14.381Z,40.21
2018-05-06T20:48:42.656Z,40.85
2018-05-06T20:51:10.987Z,41.10
2018-05-06T20:53:39.269Z,40.81
2018-05-06T20:56:07.571Z,41.27
2018-05-06T20:58:35.844Z,41.14
2018-05-06T21:01:04.131Z,41.50
2018-05-06T21:03:32.419Z,42.53
2018-05-06T21:06:00.773Z,42.42
2018-05-06T21:08:29.903Z,42.41
2018-05-06T21:10:58.150Z,42.16
2018-05-06T21:13:26.459Z,42.17
2018-05-06T21:15:54.772Z,42.11
2018-05-06T21:18:23.078Z,42.94
2018-05-06T21:20:51.382Z,43.28
2018-05-06T21:23:19.671Z,41.86
2018-05-06T21:25:48.723Z,42.38
2018-05-06T21:28:17.009Z,41.96
2018-05-06T21:30:45.396Z,42.84
2018-05-06T21:33:13.659Z,42.82
2018-05-06T21:35:41.923Z,42.97
2018-05-06T21:38:10.430Z,42.55
2018-05-06T21:40:38.708Z,42.57
2018-05-06T21:43:06.977Z,42.29
2018-05-06T21:45:35.277Z,42.64
2018-05-06T21:48:04.380Z,42.19
2018-05-06T21:50:33.522Z,42.30
2018-05-06T21:53:01.944Z,42.49
2018-05-06T21:55:30.119Z,42.27
2018-05-06T21:57:58.414Z,42.09
2018-05-06T22:00:27.464Z,42.06
2018-05-06T22:02:55.728Z,41.73
2018-05-06T22:05:24.013Z,41.61
2018-05-06T22:07:52.283Z,41.63
2018-05-06T22:10:20.571Z,42.69
2018-05-06T22:12:48.825Z,41.86
2018-05-06T22:15:17.141Z,42.68
2018-05-06T22:17:46.177Z,43.07
2018-05-06T22:20:14.477Z,43.56
2018-05-06T22:22:42.751Z,43.02
2018-05-06T22:25:11.056Z,42.98
2018-05-06T22:27:39.439Z,42.89
2018-05-06T22:30:08.483Z,43.34
2018-05-06T22:32:36.777Z,43.88
2018-05-06T22:35:05.042Z,45.86
2018-05-06T22:37:33.361Z,45.37
2018-05-06T22:40:02.393Z,46.57
2018-05-06T22:42:30.706Z,46.79
2018-05-06T22:44:59.774Z,48.58
2018-05-06T22:47:28.058Z,48.27
2018-05-06T22:49:56.326Z,48.94
2018-05-06T22:52:24.626Z,48.87
2018-05-06T22:54:52.915Z,47.92
2018-05-06T22:57:21.981Z,48.98
2018-05-06T22:59:50.274Z,49.09
2018-05-06T23:02:19.310Z,46.65
2018-05-06T23:04:47.594Z,48.78
2018-05-06T23:07:15.997Z,47.87
2018-05-06T23:09:44.283Z,47.19
2018-05-06T23:12:12.547Z,47.46
2018-05-06T23:14:40.825Z,47.58
2018-05-06T23:17:09.209Z,44.97
2018-05-06T23:19:37.526Z,43.24
2018-05-06T23:22:05.830Z,43.20
2018-05-06T23:24:34.119Z,44.58
2018-05-06T23:27:02.434Z,45.73
2018-05-06T23:29:30.727Z,45.64
2018-05-06T23:31:59.777Z,46.40
2018-05-06T23:34:28.067Z,44.35
2018-05-06T23:36:56.340Z,44.01
2018-05-06T23:39:24.621Z,45.14
2018-05-06T23:41:52.883Z,44.49
2018-05-06T23:44:21.492Z,45.48
2018-05-06T23:46:50.539Z,43.20
2018-05-06T23:49:18.947Z,42.46
2018-05-06T23:51:47.238Z,43.15
2018-05-06T23:54:16.309Z,43.73
2018-05-06T23:56:44.587Z,43.58
2018-05-06T23:59:12.877Z,43.91
